createdAt,value
2023-02-02T00:01:50.859Z,87.21
2023-02-02T00:04:37.046Z,89.27
2023-02-02T00:07:05.620Z,89.78
2023-02-02T00:09:33.923Z,89.86
2023-02-02T00:12:03.752Z,89.44
2023-02-02T00:14:31.134Z,89.15
2023-02-02T00:16:58.707Z,89.64
2023-02-02T00:19:31.685Z,90.07
2023-02-02T00:22:00.972Z,89.85
2023-02-02T00:24:28.105Z,88.81
2023-02-02T00:27:02.935Z,89.09
2023-02-02T00:29:31.980Z,89.81
2023-02-02T00:32:01.510Z,88.84
2023-02-02T00:34:28.669Z,88.51
2023-02-02T00:36:55.617Z,88.17
2023-02-02T00:39:26.207Z,87.65
2023-02-02T00:41:56.031Z,87.29
2023-02-02T00:44:41.898Z,87.42
2023-02-02T00:47:08.786Z,88.00
2023-02-02T00:49:35.813Z,87.11
2023-02-02T00:52:03.053Z,87.39
2023-02-02T00:54:32.507Z,88.00
2023-02-02T00:56:59.653Z,89.51
2023-02-02T00:59:28.657Z,88.77
2023-02-02T01:01:55.827Z,89.45
2023-02-02T01:04:27.457Z,89.82
2023-02-02T01:06:54.419Z,89.57
2023-02-02T01:09:21.477Z,89.89
2023-02-02T01:11:48.450Z,89.20
2023-02-02T01:14:18.106Z,88.99
2023-02-02T01:16:47.874Z,89.75
2023-02-02T01:19:16.197Z,90.70
2023-02-02T01:21:43.849Z,91.46
2023-02-02T01:24:10.897Z,91.75
2023-02-02T01:26:37.902Z,91.67
2023-02-02T01:29:04.910Z,91.57
2023-02-02T01:31:35.123Z,91.13
2023-02-02T01:34:07.079Z,92.20
2023-02-02T01:36:36.551Z,92.92
2023-02-02T01:39:06.217Z,92.89
2023-02-02T01:41:33.229Z,93.10
2023-02-02T01:44:06.788Z,93.57
2023-02-02T01:46:39.394Z,93.13
2023-02-02T01:49:21.156Z,92.48
2023-02-02T01:51:58.274Z,92.59
2023-02-02T01:54:46.152Z,92.07
2023-02-02T01:57:17.095Z,92.01
2023-02-02T01:59:46.236Z,91.91
2023-02-02T02:02:13.708Z,91.58
2023-02-02T02:04:42.347Z,92.69
2023-02-02T02:07:12.269Z,92.96
2023-02-02T02:09:39.543Z,92.77
2023-02-02T02:12:15.631Z,92.20
2023-02-02T02:15:10.093Z,92.60
2023-02-02T02:18:04.719Z,92.89
2023-02-02T02:21:35.879Z,94.00
2023-02-02T02:26:05.885Z,92.68
2023-02-02T02:28:57.296Z,91.10
2023-02-02T02:31:33.577Z,91.95
2023-02-02T02:34:08.490Z,90.59
2023-02-02T02:37:02.709Z,91.05
2023-02-02T02:40:02.794Z,90.30
2023-02-02T02:42:39.279Z,91.37
2023-02-02T02:45:14.318Z,91.43
2023-02-02T02:47:45.009Z,90.15
2023-02-02T02:50:12.427Z,90.92
2023-02-02T02:52:40.700Z,92.00
2023-02-02T02:55:10.775Z,91.67
2023-02-02T02:57:58.861Z,91.99
2023-02-02T03:00:50.090Z,92.46
2023-02-02T03:03:33.057Z,91.92
2023-02-02T03:06:08.857Z,91.30
2023-02-02T03:08:48.530Z,92.18
2023-02-02T03:11:17.326Z,91.52
2023-02-02T03:13:44.800Z,91.17
2023-02-02T03:16:11.971Z,91.89
2023-02-02T03:18:39.631Z,91.85
2023-02-02T03:21:06.655Z,92.56
2023-02-02T03:23:36.238Z,91.92
2023-02-02T03:26:03.335Z,91.72
2023-02-02T03:28:33.323Z,92.05
2023-02-02T03:31:04.088Z,92.73
2023-02-02T03:33:33.399Z,91.98
2023-02-02T03:36:00.539Z,92.93
2023-02-02T03:38:32.264Z,93.42
2023-02-02T03:40:59.235Z,92.31
2023-02-02T03:43:26.271Z,91.67
2023-02-02T03:46:04.493Z,90.97
2023-02-02T03:48:35.379Z,90.29
2023-02-02T03:51:07.671Z,89.30
2023-02-02T03:53:37.649Z,90.72
2023-02-02T03:56:05.426Z,90.83
2023-02-02T03:58:32.536Z,91.16
2023-02-02T04:01:16.475Z,91.03
2023-02-02T04:03:43.825Z,90.40
2023-02-02T04:06:20.927Z,90.80
2023-02-02T04:08:50.216Z,91.40
2023-02-02T04:11:18.975Z,90.33
2023-02-02T04:13:48.219Z,90.39
2023-02-02T04:16:16.377Z,89.13
2023-02-02T04:18:43.553Z,90.15
2023-02-02T04:21:15.507Z,91.34
2023-02-02T04:23:42.361Z,90.85
2023-02-02T04:26:09.291Z,90.80
2023-02-02T04:28:36.902Z,91.19
2023-02-02T04:31:07.058Z,92.46
2023-02-02T04:33:35.841Z,92.23
2023-02-02T04:36:03.226Z,90.94
2023-02-02T04:38:30.214Z,91.59
2023-02-02T04:40:59.454Z,91.46
2023-02-02T04:43:26.383Z,91.99
2023-02-02T04:45:57.564Z,90.77
2023-02-02T04:48:29.516Z,91.28
2023-02-02T04:51:06.240Z,90.57
2023-02-02T04:53:33.661Z,90.65
2023-02-02T04:56:30.134Z,91.49
2023-02-02T04:58:57.172Z,92.27
2023-02-02T05:01:24.757Z,92.72
2023-02-02T05:03:52.246Z,92.01
2023-02-02T05:06:19.791Z,90.62
2023-02-02T05:08:48.975Z,90.55
2023-02-02T05:11:19.856Z,90.96
2023-02-02T05:13:56.470Z,90.08
2023-02-02T05:16:25.947Z,89.81
2023-02-02T05:18:57.023Z,89.24
2023-02-02T05:21:27.045Z,89.34
2023-02-02T05:23:54.024Z,88.92
2023-02-02T05:26:28.850Z,88.21
2023-02-02T05:28:59.583Z,88.69
2023-02-02T05:31:30.038Z,88.16
2023-02-02T05:33:57.186Z,86.99
2023-02-02T05:36:24.379Z,87.54
2023-02-02T05:38:53.779Z,88.05
2023-02-02T05:41:20.933Z,88.99
2023-02-02T05:43:47.883Z,89.66
2023-02-02T05:46:15.095Z,89.77
2023-02-02T05:48:42.271Z,88.48
2023-02-02T05:51:31.450Z,88.11
2023-02-02T05:54:00.679Z,88.71
2023-02-02T05:56:28.509Z,87.61
2023-02-02T05:58:57.690Z,87.99
2023-02-02T06:01:25.203Z,88.04
2023-02-02T06:03:55.006Z,88.16
2023-02-02T06:06:22.023Z,87.87
2023-02-02T06:08:51.135Z,88.91
2023-02-02T06:11:22.369Z,88.44
2023-02-02T06:13:50.060Z,87.84
2023-02-02T06:16:21.472Z,89.29
2023-02-02T06:18:48.760Z,89.36
2023-02-02T06:21:15.796Z,88.43
2023-02-02T06:23:46.092Z,89.71
2023-02-02T06:26:14.379Z,90.00
2023-02-02T06:28:48.018Z,89.74
2023-02-02T06:31:19.248Z,90.45
2023-02-02T06:33:57.629Z,91.27
2023-02-02T06:36:28.572Z,91.04
2023-02-02T06:38:57.360Z,91.71
2023-02-02T06:41:25.086Z,92.05
2023-02-02T06:43:52.729Z,90.83
2023-02-02T06:46:19.834Z,90.06
2023-02-02T06:48:46.784Z,89.96
2023-02-02T06:51:16.137Z,89.96
2023-02-02T06:53:47.672Z,89.86
2023-02-02T06:56:17.697Z,89.47
2023-02-02T06:58:44.732Z,90.02
2023-02-02T07:01:14.864Z,89.41
2023-02-02T07:03:42.270Z,89.50
2023-02-02T07:06:18.811Z,89.76
2023-02-02T07:08:59.289Z,89.49
2023-02-02T07:11:37.633Z,88.73
2023-02-02T07:14:09.395Z,89.51
2023-02-02T07:16:38.589Z,88.20
2023-02-02T07:19:08.022Z,89.82
2023-02-02T07:21:39.610Z,88.72
2023-02-02T07:24:07.325Z,89.36
2023-02-02T07:26:37.979Z,88.64
2023-02-02T07:29:07.496Z,88.36
2023-02-02T07:31:36.651Z,87.52
2023-02-02T07:34:06.377Z,87.11
2023-02-02T07:36:33.724Z,87.74
2023-02-02T07:39:03.964Z,87.18
2023-02-02T07:41:34.972Z,87.66
2023-02-02T07:44:05.466Z,87.65
2023-02-02T07:46:37.329Z,87.64
2023-02-02T07:49:07.946Z,87.51
2023-02-02T07:51:39.163Z,88.07
2023-02-02T07:54:10.188Z,87.54
2023-02-02T07:56:40.023Z,87.03
2023-02-02T07:59:07.129Z,86.01
2023-02-02T08:01:34.174Z,85.05
2023-02-02T08:04:06.854Z,84.72
2023-02-02T08:06:37.432Z,84.60
2023-02-02T08:09:10.438Z,85.22
2023-02-02T08:11:38.728Z,84.51
2023-02-02T08:14:06.759Z,85.23
2023-02-02T08:16:34.461Z,85.79
2023-02-02T08:19:01.959Z,84.82
2023-02-02T08:21:35.447Z,83.99
2023-02-02T08:24:05.284Z,83.39
2023-02-02T08:26:35.319Z,83.48
2023-02-02T08:29:08.156Z,81.83
2023-02-02T08:31:38.497Z,80.66
2023-02-02T08:34:06.173Z,79.87
2023-02-02T08:36:35.413Z,81.08
2023-02-02T08:39:09.945Z,80.61
2023-02-02T08:41:39.880Z,81.72
2023-02-02T08:44:15.848Z,80.76
2023-02-02T08:46:48.191Z,81.19
2023-02-02T08:49:15.458Z,80.96
2023-02-02T08:51:43.085Z,81.71
2023-02-02T08:54:09.933Z,82.67
2023-02-02T08:56:36.864Z,82.60
2023-02-02T08:59:06.454Z,82.77
2023-02-02T09:01:37.562Z,82.64
2023-02-02T09:04:07.831Z,82.42
2023-02-02T09:06:42.803Z,82.08
2023-02-02T09:09:14.355Z,82.29
2023-02-02T09:11:43.893Z,82.19
2023-02-02T09:14:14.757Z,82.05
2023-02-02T09:16:44.202Z,81.45
2023-02-02T09:19:13.847Z,81.44
2023-02-02T09:21:45.367Z,82.18
2023-02-02T09:24:14.342Z,82.63
2023-02-02T09:26:44.977Z,84.18
2023-02-02T09:29:18.138Z,81.41
2023-02-02T09:31:45.785Z,78.82
2023-02-02T09:34:15.014Z,75.71
2023-02-02T09:36:46.480Z,71.54
2023-02-02T09:39:15.169Z,67.44
2023-02-02T09:41:56.042Z,63.24
2023-02-02T09:44:59.850Z,56.99
2023-02-02T09:47:51.023Z,49.89
2023-02-02T09:50:40.237Z,50.04
2023-02-02T09:53:09.882Z,53.10
2023-02-02T09:55:48.884Z,55.25
2023-02-02T09:58:35.470Z,55.20
2023-02-02T10:01:27.291Z,59.50
2023-02-02T10:04:26.990Z,62.74
2023-02-02T10:06:57.949Z,63.53
2023-02-02T10:09:44.455Z,65.87
2023-02-02T10:12:40.897Z,66.32
2023-02-02T10:15:49.132Z,63.47
2023-02-02T10:18:34.226Z,63.97
2023-02-02T10:21:16.458Z,59.47
2023-02-02T10:23:46.645Z,59.93
2023-02-02T10:26:39.951Z,58.86
2023-02-02T10:29:28.072Z,51.75
2023-02-02T10:32:23.240Z,51.77
2023-02-02T10:35:28.968Z,51.41
2023-02-02T10:38:56.039Z,50.32
2023-02-02T10:41:28.700Z,51.29
2023-02-02T10:44:37.840Z,52.70
2023-02-02T10:47:13.059Z,53.53
2023-02-02T10:49:41.425Z,54.67
2023-02-02T10:52:18.177Z,56.02
2023-02-02T10:55:20.823Z,57.09
2023-02-02T10:58:24.562Z,57.83
2023-02-02T11:00:58.103Z,58.16
2023-02-02T11:03:32.235Z,57.21
2023-02-02T11:06:23.090Z,57.29
2023-02-02T11:08:56.813Z,51.13
2023-02-02T11:11:35.122Z,51.66
2023-02-02T11:14:10.259Z,54.10
2023-02-02T11:16:45.714Z,57.51
2023-02-02T11:19:19.675Z,57.20
2023-02-02T11:21:50.630Z,58.08
2023-02-02T11:24:47.775Z,59.00
2023-02-02T11:27:20.413Z,58.50
2023-02-02T11:29:53.197Z,61.40
2023-02-02T11:32:29.684Z,61.58
2023-02-02T11:35:02.723Z,59.88
2023-02-02T11:37:38.200Z,60.04
2023-02-02T11:40:27.266Z,59.07
2023-02-02T11:43:02.467Z,57.07
2023-02-02T11:45:44.479Z,52.06
2023-02-02T11:48:22.372Z,53.74
2023-02-02T11:50:54.826Z,55.65
2023-02-02T11:53:46.871Z,55.96
2023-02-02T11:56:20.415Z,57.53
2023-02-02T11:58:50.467Z,56.81
2023-02-02T12:01:31.294Z,53.75
2023-02-02T12:04:01.740Z,49.49
2023-02-02T12:06:38.274Z,47.19
2023-02-02T12:09:17.379Z,45.11
2023-02-02T12:12:18.177Z,44.09
2023-02-02T12:16:09.144Z,45.34
2023-02-02T12:19:17.887Z,39.63
2023-02-02T12:22:24.382Z,34.34
2023-02-02T12:24:56.021Z,35.14
2023-02-02T12:28:01.568Z,37.58
2023-02-02T12:31:08.092Z,41.91
2023-02-02T12:33:58.261Z,42.00
2023-02-02T12:36:51.963Z,42.80
2023-02-02T12:40:14.585Z,40.37
2023-02-02T12:42:44.195Z,34.60
2023-02-02T12:45:33.656Z,31.03
2023-02-02T12:48:45.515Z,28.49
2023-02-02T12:51:52.089Z,26.80
2023-02-02T12:54:45.489Z,26.26
2023-02-02T12:57:17.761Z,27.15
2023-02-02T13:00:11.277Z,26.03
2023-02-02T13:03:25.798Z,26.02
2023-02-02T13:06:28.713Z,27.33
2023-02-02T13:09:06.302Z,27.88
2023-02-02T13:11:42.243Z,26.27
2023-02-02T13:14:15.892Z,26.43
2023-02-02T13:16:48.686Z,26.56
2023-02-02T13:19:31.184Z,25.85
2023-02-02T13:22:01.018Z,25.40
2023-02-02T13:24:37.603Z,25.24
2023-02-02T13:27:07.881Z,24.94
2023-02-02T13:29:58.865Z,24.25
2023-02-02T13:32:38.608Z,25.18
2023-02-02T13:35:16.175Z,26.70
2023-02-02T13:37:55.426Z,27.21
2023-02-02T13:40:32.162Z,27.99
2023-02-02T13:43:34.932Z,28.67
2023-02-02T13:46:40.824Z,29.31
2023-02-02T13:49:25.706Z,30.50
2023-02-02T13:52:15.003Z,29.82
2023-02-02T13:54:57.543Z,31.54
2023-02-02T13:57:43.477Z,30.48
2023-02-02T14:00:13.147Z,30.22
2023-02-02T14:02:57.085Z,30.51
2023-02-02T14:05:35.747Z,30.23
2023-02-02T14:08:22.545Z,31.42
2023-02-02T14:10:52.597Z,31.70
2023-02-02T14:13:41.487Z,31.81
2023-02-02T14:16:40.554Z,32.68
2023-02-02T14:19:35.437Z,32.91
2023-02-02T14:22:41.089Z,32.49
2023-02-02T14:25:34.322Z,32.00
2023-02-02T14:28:10.632Z,30.76
2023-02-02T14:30:39.621Z,31.35
2023-02-02T14:33:24.182Z,31.44
2023-02-02T14:35:53.919Z,32.90
2023-02-02T14:38:36.419Z,34.10
2023-02-02T14:41:41.716Z,35.56
2023-02-02T14:44:08.858Z,35.77
2023-02-02T14:46:41.027Z,37.41
2023-02-02T14:49:15.805Z,40.54
2023-02-02T14:51:56.397Z,41.40
2023-02-02T14:54:32.587Z,41.79
2023-02-02T14:57:22.237Z,42.97
2023-02-02T14:59:49.976Z,42.98
2023-02-02T15:02:29.936Z,42.75
2023-02-02T15:05:34.286Z,42.11
2023-02-02T15:08:27.263Z,43.23
2023-02-02T15:11:26.952Z,43.73
2023-02-02T15:14:06.980Z,44.38
2023-02-02T15:16:37.448Z,46.61
2023-02-02T15:19:25.064Z,46.48
2023-02-02T15:21:56.139Z,47.72
2023-02-02T15:24:36.007Z,48.80
2023-02-02T15:27:04.653Z,49.10
2023-02-02T15:29:43.917Z,50.31
2023-02-02T15:32:20.420Z,50.49
2023-02-02T15:34:53.045Z,51.93
2023-02-02T15:37:30.145Z,52.53
2023-02-02T15:40:00.909Z,53.43
2023-02-02T15:42:54.385Z,52.94
2023-02-02T15:45:44.475Z,54.18
2023-02-02T15:48:30.403Z,53.75
2023-02-02T15:51:03.771Z,54.56
2023-02-02T15:53:46.321Z,53.89
2023-02-02T15:56:21.104Z,55.00
2023-02-02T15:58:53.583Z,55.16
2023-02-02T16:01:23.913Z,55.25
2023-02-02T16:03:59.948Z,56.14
2023-02-02T16:06:31.175Z,56.72
2023-02-02T16:08:58.888Z,56.91
2023-02-02T16:11:25.887Z,57.63
2023-02-02T16:14:05.729Z,57.70
2023-02-02T16:16:41.742Z,58.45
2023-02-02T16:19:10.789Z,58.50
2023-02-02T16:22:02.198Z,58.60
2023-02-02T16:24:36.497Z,59.92
2023-02-02T16:27:07.835Z,59.69
2023-02-02T16:29:35.617Z,59.92
2023-02-02T16:32:04.404Z,59.86
2023-02-02T16:34:40.651Z,60.22
2023-02-02T16:37:32.150Z,60.71
2023-02-02T16:40:29.744Z,61.87
2023-02-02T16:43:19.630Z,62.61
2023-02-02T16:45:56.825Z,62.40
2023-02-02T16:48:46.683Z,62.72
2023-02-02T16:51:16.668Z,62.86
2023-02-02T16:54:06.305Z,63.17
2023-02-02T16:56:41.049Z,63.72
2023-02-02T16:59:30.285Z,63.64
2023-02-02T17:02:22.142Z,64.14
2023-02-02T17:04:57.055Z,64.26
2023-02-02T17:07:26.725Z,63.60
2023-02-02T17:10:18.044Z,63.88
2023-02-02T17:12:50.278Z,64.27
2023-02-02T17:15:17.123Z,65.21
2023-02-02T17:17:48.957Z,65.15
2023-02-02T17:20:20.990Z,66.18
2023-02-02T17:23:02.672Z,65.79
2023-02-02T17:25:41.492Z,67.02
2023-02-02T17:28:13.692Z,66.34
2023-02-02T17:30:43.682Z,66.42
2023-02-02T17:33:19.752Z,66.63
2023-02-02T17:35:55.847Z,65.59
2023-02-02T17:38:25.299Z,65.50
2023-02-02T17:40:53.017Z,66.12
2023-02-02T17:43:20.529Z,66.56
2023-02-02T17:45:50.524Z,67.67
2023-02-02T17:48:20.698Z,68.28
2023-02-02T17:50:50.408Z,67.99
2023-02-02T17:53:22.397Z,69.41
2023-02-02T17:55:51.557Z,69.09
2023-02-02T17:58:21.710Z,69.50
2023-02-02T18:00:54.077Z,69.55
2023-02-02T18:03:30.936Z,69.38
2023-02-02T18:06:02.215Z,71.24
2023-02-02T18:08:31.780Z,70.69
2023-02-02T18:10:59.678Z,70.65
2023-02-02T18:13:27.315Z,71.91
2023-02-02T18:15:56.101Z,72.69
2023-02-02T18:18:23.404Z,71.87
2023-02-02T18:20:53.456Z,73.17
2023-02-02T18:23:24.638Z,72.43
2023-02-02T18:25:53.069Z,72.75
2023-02-02T18:28:24.688Z,72.17
2023-02-02T18:30:53.986Z,72.20
2023-02-02T18:33:20.922Z,71.50
2023-02-02T18:35:48.573Z,72.32
2023-02-02T18:38:16.017Z,73.56
2023-02-02T18:40:45.603Z,73.58
2023-02-02T18:43:19.659Z,74.81
2023-02-02T18:45:46.699Z,74.79
2023-02-02T18:48:19.679Z,74.66
2023-02-02T18:50:46.744Z,74.89
2023-02-02T18:53:17.849Z,73.67
2023-02-02T18:55:47.411Z,74.62
2023-02-02T18:58:17.133Z,74.14
2023-02-02T19:00:46.394Z,74.53
2023-02-02T19:03:13.523Z,76.13
2023-02-02T19:05:59.430Z,76.28
2023-02-02T19:08:32.426Z,76.43
2023-02-02T19:11:20.093Z,75.24
2023-02-02T19:13:47.746Z,76.24
2023-02-02T19:16:30.131Z,77.27
2023-02-02T19:19:04.256Z,77.43
2023-02-02T19:21:34.787Z,77.29
2023-02-02T19:24:04.169Z,76.69
2023-02-02T19:26:45.436Z,77.61
2023-02-02T19:29:22.578Z,77.41
2023-02-02T19:32:21.827Z,77.54
2023-02-02T19:35:01.772Z,77.60
2023-02-02T19:37:43.264Z,78.57
2023-02-02T19:40:13.659Z,78.79
2023-02-02T19:42:48.639Z,80.13
2023-02-02T19:45:33.360Z,80.25
2023-02-02T19:48:17.803Z,80.13
2023-02-02T19:50:47.980Z,81.35
2023-02-02T19:53:35.540Z,81.45
2023-02-02T19:56:13.911Z,81.02
2023-02-02T19:58:44.765Z,82.04
2023-02-02T20:01:20.490Z,81.92
2023-02-02T20:03:53.194Z,83.32
2023-02-02T20:06:25.753Z,83.84
2023-02-02T20:08:53.645Z,84.43
2023-02-02T20:11:24.454Z,85.83
2023-02-02T20:13:57.347Z,87.20
2023-02-02T20:16:28.713Z,87.65
2023-02-02T20:18:58.403Z,88.36
2023-02-02T20:21:37.564Z,87.64
2023-02-02T20:24:20.106Z,87.35
2023-02-02T20:26:48.394Z,88.08
2023-02-02T20:29:27.305Z,90.44
2023-02-02T20:32:00.146Z,90.96
2023-02-02T20:34:33.831Z,93.87
2023-02-02T20:37:30.794Z,93.93
2023-02-02T20:40:01.606Z,93.31
2023-02-02T20:42:32.846Z,94.92
2023-02-02T20:45:00.064Z,93.47
2023-02-02T20:47:27.334Z,94.51
2023-02-02T20:49:54.524Z,93.49
2023-02-02T20:52:26.609Z,92.52
2023-02-02T20:54:53.762Z,92.54
2023-02-02T20:57:20.819Z,94.80
2023-02-02T20:59:47.889Z,95.45
2023-02-02T21:02:19.656Z,95.04
2023-02-02T21:04:51.576Z,95.66
2023-02-02T21:07:22.404Z,96.30
2023-02-02T21:09:51.181Z,97.76
2023-02-02T21:12:18.555Z,97.70
2023-02-02T21:14:45.414Z,97.47
2023-02-02T21:17:15.547Z,97.56
2023-02-02T21:19:43.644Z,97.32
2023-02-02T21:22:11.628Z,98.35
2023-02-02T21:24:38.895Z,97.87
2023-02-02T21:27:09.026Z,97.25
2023-02-02T21:29:38.543Z,96.44
2023-02-02T21:32:06.569Z,95.90
2023-02-02T21:34:37.710Z,97.36
2023-02-02T21:37:16.660Z,96.80
2023-02-02T21:39:49.649Z,96.27
2023-02-02T21:42:22.207Z,97.24
2023-02-02T21:44:58.064Z,96.70
2023-02-02T21:47:56.745Z,96.10
2023-02-02T21:50:40.479Z,96.48
2023-02-02T21:53:26.377Z,97.23
2023-02-02T21:56:02.885Z,96.43
2023-02-02T21:58:40.290Z,95.74
2023-02-02T22:01:34.045Z,95.92
2023-02-02T22:04:00.986Z,95.42
2023-02-02T22:06:36.520Z,95.04
2023-02-02T22:09:12.267Z,97.56
2023-02-02T22:11:58.577Z,97.85
2023-02-02T22:14:39.911Z,97.77
2023-02-02T22:17:24.703Z,96.77
2023-02-02T22:20:00.719Z,95.79
2023-02-02T22:22:36.105Z,96.45
2023-02-02T22:25:30.611Z,97.55
2023-02-02T22:28:05.055Z,99.58
2023-02-02T22:30:40.754Z,100.00
2023-02-02T22:33:11.493Z,100.00
2023-02-02T22:35:41.579Z,100.00
2023-02-02T22:38:15.369Z,100.00
2023-02-02T22:40:42.404Z,100.00
2023-02-02T22:43:13.404Z,100.00
2023-02-02T22:45:43.052Z,100.00
2023-02-02T22:48:10.119Z,100.00
2023-02-02T22:50:37.737Z,100.00
2023-02-02T22:53:05.672Z,100.00
2023-02-02T22:55:33.567Z,100.00
2023-02-02T22:58:03.131Z,100.00
2023-02-02T23:00:37.928Z,100.00
2023-02-02T23:03:07.619Z,100.00
2023-02-02T23:05:34.550Z,100.00
2023-02-02T23:08:04.303Z,100.00
2023-02-02T23:10:35.829Z,100.00
2023-02-02T23:13:06.275Z,100.00
2023-02-02T23:15:34.792Z,100.00
2023-02-02T23:18:02.819Z,100.00
2023-02-02T23:20:29.912Z,100.00
2023-02-02T23:22:57.185Z,100.00
2023-02-02T23:25:24.306Z,100.00
2023-02-02T23:27:51.557Z,100.00
2023-02-02T23:30:21.203Z,100.00
2023-02-02T23:32:50.789Z,100.00
2023-02-02T23:35:17.892Z,100.00
2023-02-02T23:37:45.114Z,100.00
2023-02-02T23:40:15.240Z,100.00
2023-02-02T23:42:42.284Z,100.00
2023-02-02T23:45:10.042Z,100.00
2023-02-02T23:47:37.270Z,100.00
2023-02-02T23:50:07.051Z,100.00
2023-02-02T23:52:41.634Z,100.00
2023-02-02T23:55:11.775Z,100.00
2023-02-02T23:57:43.405Z,100.00
